Time;durP1;ratioP1;P1;durP2;ratioP2;P2;SDS_P1;SDS_P2;PMS_P1;PMS_P2;Temp;Humidity;BMP_temperature;BMP_pressure;BME280_temperature;BME280_humidity;BME280_pressure;Samples;Min_cycle;Max_cycle;Signal;HPM_P1;HPM_P2
2023/04/03 04:04:41;;;;;;;1.63;1.50;;;4.60;99.90;;;;;;5686108;23;20234;-62
2023/04/03 04:07:06;;;;;;;3.17;1.77;;;4.60;99.90;;;;;;4957353;28;20180;-65
2023/04/03 04:09:32;;;;;;;4.17;2.67;;;4.60;99.90;;;;;;4955107;28;20168;-64
2023/04/03 04:11:57;;;;;;;1.80;1.70;;;4.60;99.90;;;;;;4955744;28;20252;-63
2023/04/03 04:14:23;;;;;;;2.43;1.80;;;4.60;99.90;;;;;;4948383;28;20210;-62
2023/04/03 04:16:49;;;;;;;2.00;1.90;;;4.70;99.90;;;;;;4936372;29;20170;-63
2023/04/03 04:19:15;;;;;;;2.17;2.07;;;4.60;99.90;;;;;;4936545;29;20173;-63
2023/04/03 04:21:41;;;;;;;2.00;1.90;;;4.60;99.90;;;;;;4938509;29;20169;-63
2023/04/03 04:24:07;;;;;;;2.50;2.30;;;4.60;99.90;;;;;;4954633;28;20966;-62
2023/04/03 04:26:33;;;;;;;1.40;1.30;;;4.60;99.90;;;;;;4948699;28;20552;-63
2023/04/03 04:28:58;;;;;;;1.80;1.70;;;4.60;99.90;;;;;;4934898;29;20178;-61
2023/04/03 04:31:24;;;;;;;1.83;1.73;;;4.60;99.90;;;;;;4936371;29;20707;-62
2023/04/03 04:33:50;;;;;;;3.07;1.80;;;4.60;99.90;;;;;;4935122;29;20236;-62
2023/04/03 04:36:16;;;;;;;2.20;2.10;;;4.70;99.90;;;;;;4937245;29;20284;-64
2023/04/03 04:38:42;;;;;;;1.80;1.70;;;4.60;99.90;;;;;;4955613;28;20201;-62
2023/04/03 04:41:08;;;;;;;1.63;1.52;;;4.70;99.90;;;;;;4954184;28;20639;-64
2023/04/03 04:43:33;;;;;;;2.10;1.70;;;4.70;99.90;;;;;;4943443;28;20271;-61
2023/04/03 04:46:03;;;;;;;2.23;1.47;;;4.70;99.90;;;;;;4944087;28;20452;-64
2023/04/03 04:48:29;;;;;;;1.90;1.80;;;4.70;99.90;;;;;;4938580;28;20181;-61
2023/04/03 04:50:55;;;;;;;1.60;1.50;;;4.70;99.90;;;;;;4936738;29;20189;-63
2023/04/03 04:53:21;;;;;;;2.13;2.03;;;4.70;99.90;;;;;;4954412;28;20631;-62
2023/04/03 04:55:46;;;;;;;5.03;1.87;;;4.70;99.90;;;;;;4954582;28;20279;-63
2023/04/03 04:58:12;;;;;;;1.40;1.30;;;4.70;99.90;;;;;;4953891;29;20184;-62
2023/04/03 05:00:37;;;;;;;1.07;1.07;;;4.70;99.90;;;;;;4954658;28;20260;-62
2023/04/03 05:03:03;;;;;;;1.50;1.40;;;4.70;99.90;;;;;;4954638;28;20564;-62
2023/04/03 05:05:29;;;;;;;2.20;1.80;;;4.70;99.90;;;;;;4954535;28;20220;-62
2023/04/03 05:07:54;;;;;;;1.90;1.80;;;4.60;99.90;;;;;;4954778;28;20424;-62
2023/04/03 05:10:20;;;;;;;1.67;1.57;;;4.60;99.90;;;;;;4955298;28;20168;-62
2023/04/03 05:12:46;;;;;;;1.80;1.70;;;4.70;99.90;;;;;;4955032;28;20183;-64
2023/04/03 05:15:11;;;;;;;1.97;1.87;;;4.60;99.90;;;;;;4954596;28;20204;-62
2023/04/03 05:17:37;;;;;;;1.90;1.80;;;4.50;99.90;;;;;;4954973;28;20258;-62
2023/04/03 05:20:04;;;;;;;1.43;1.43;;;4.50;99.90;;;;;;4954995;28;20181;-61
2023/04/03 05:22:30;;;;;;;2.42;2.22;;;4.50;99.90;;;;;;4955080;28;20223;-62
2023/04/03 05:24:56;;;;;;;2.10;2.00;;;4.50;99.90;;;;;;4954706;28;20228;-65
2023/04/03 05:27:23;;;;;;;2.30;2.20;;;4.50;99.90;;;;;;4955029;28;20177;-63
2023/04/03 05:29:49;;;;;;;1.85;1.75;;;4.50;99.90;;;;;;4954860;28;20531;-63
2023/04/03 05:32:15;;;;;;;2.03;1.58;;;4.50;99.90;;;;;;4955089;28;20227;-62
2023/04/03 05:34:41;;;;;;;1.90;1.80;;;4.50;99.90;;;;;;4954583;28;20209;-63
2023/04/03 05:37:07;;;;;;;2.73;2.53;;;4.50;99.90;;;;;;4954792;28;20191;-60
2023/04/03 05:39:33;;;;;;;2.00;1.90;;;4.40;99.90;;;;;;4954981;28;20177;-64
2023/04/03 05:41:59;;;;;;;2.55;2.35;;;4.40;99.90;;;;;;4943653;28;20190;-61
2023/04/03 05:44:24;;;;;;;1.67;1.57;;;4.40;99.90;;;;;;4939067;29;20205;-64
2023/04/03 05:46:50;;;;;;;2.10;2.00;;;4.50;99.90;;;;;;4939377;29;20208;-68
2023/04/03 05:49:16;;;;;;;2.20;2.10;;;4.50;99.90;;;;;;4954691;29;20176;-67
2023/04/03 05:51:41;;;;;;;2.47;2.27;;;4.40;99.90;;;;;;4957813;28;20173;-64
2023/04/03 05:54:23;;;;;;;1.60;1.50;;;4.50;99.90;;;;;;4957642;28;20243;-64
2023/04/03 05:56:49;;;;;;;2.38;2.17;;;4.50;99.90;;;;;;4958203;28;20177;-62
2023/04/03 05:59:16;;;;;;;3.35;3.05;;;4.50;99.90;;;;;;4958334;28;20574;-62
2023/04/03 06:01:42;;;;;;;2.17;1.98;;;4.50;99.90;;;;;;4957783;28;20189;-61
2023/04/03 06:04:10;;;;;;;2.33;2.10;;;4.60;99.90;;;;;;4956443;28;20574;-64
2023/04/03 06:06:51;;;;;;;2.47;2.20;;;4.60;99.90;;;;;;4957212;28;20190;-62
2023/04/03 06:09:19;;;;;;;1.70;1.60;;;4.70;99.90;;;;;;4957836;28;20188;-62
2023/04/03 06:11:45;;;;;;;1.48;1.38;;;4.80;99.90;;;;;;4957846;28;20173;-61
2023/04/03 06:14:11;;;;;;;4.27;1.63;;;4.90;99.90;;;;;;4957135;28;20215;-62
2023/04/03 06:16:38;;;;;;;2.07;1.47;;;5.00;99.90;;;;;;4957591;28;20479;-62
2023/04/03 06:19:04;;;;;;;1.70;1.60;;;5.00;99.90;;;;;;4958095;28;20180;-62
2023/04/03 06:21:30;;;;;;;2.17;2.00;;;5.10;99.90;;;;;;4957419;28;20183;-62
2023/04/03 06:23:55;;;;;;;1.40;1.40;;;5.10;99.90;;;;;;4956969;28;20420;-64
2023/04/03 06:26:22;;;;;;;2.03;1.90;;;5.10;99.90;;;;;;4958061;28;20716;-63
2023/04/03 06:28:47;;;;;;;1.60;1.50;;;5.10;99.90;;;;;;4957694;28;20190;-64
2023/04/03 06:31:13;;;;;;;2.10;2.00;;;5.10;99.90;;;;;;4957708;28;20178;-64
2023/04/03 06:33:39;;;;;;;2.90;2.53;;;5.10;99.90;;;;;;4956805;28;20177;-61
2023/04/03 06:36:06;;;;;;;1.90;1.80;;;5.10;99.90;;;;;;4957658;28;20183;-62
2023/04/03 06:38:32;;;;;;;2.35;2.15;;;5.10;99.90;;;;;;4957412;28;20810;-64
2023/04/03 06:40:58;;;;;;;1.77;1.48;;;5.10;99.90;;;;;;4957451;28;20252;-63
2023/04/03 06:43:24;;;;;;;5.80;2.40;;;5.10;99.90;;;;;;4957225;28;20209;-62
2023/04/03 06:45:50;;;;;;;1.52;1.42;;;5.20;99.90;;;;;;4957428;28;20208;-63
2023/04/03 06:48:16;;;;;;;1.70;1.60;;;5.20;99.90;;;;;;4957215;28;20264;-63
2023/04/03 06:50:42;;;;;;;1.67;1.57;;;5.20;99.90;;;;;;4957301;28;20923;-63
2023/04/03 06:53:07;;;;;;;1.52;1.45;;;5.20;99.90;;;;;;4957110;28;20181;-61
2023/04/03 06:55:33;;;;;;;2.03;1.57;;;5.30;99.90;;;;;;4957085;28;20212;-62
2023/04/03 06:57:59;;;;;;;3.10;2.80;;;5.30;99.90;;;;;;4957194;28;20464;-64
2023/04/03 07:00:24;;;;;;;2.47;1.93;;;5.30;99.90;;;;;;4957279;28;20260;-62
2023/04/03 07:02:51;;;;;;;1.50;1.40;;;5.40;99.90;;;;;;4956928;28;20180;-62
2023/04/03 07:05:17;;;;;;;2.00;1.90;;;5.50;99.90;;;;;;4956435;28;20242;-62
2023/04/03 07:07:43;;;;;;;1.90;1.80;;;5.60;99.90;;;;;;4957181;28;20184;-64
2023/04/03 07:10:09;;;;;;;2.05;1.60;;;5.80;99.90;;;;;;4956923;28;20513;-62
2023/04/03 07:12:35;;;;;;;2.90;2.20;;;5.90;99.90;;;;;;4956896;28;20191;-64
2023/04/03 07:15:01;;;;;;;1.67;1.57;;;6.00;99.90;;;;;;4956467;28;20691;-62
2023/04/03 07:17:27;;;;;;;2.60;2.30;;;6.10;99.90;;;;;;4956939;28;20799;-63
2023/04/03 07:19:53;;;;;;;3.87;2.80;;;6.10;99.90;;;;;;4956461;28;20676;-64
2023/04/03 07:22:18;;;;;;;2.50;2.30;;;6.10;99.90;;;;;;4956385;28;20430;-63
2023/04/03 07:24:44;;;;;;;2.40;1.93;;;6.10;99.90;;;;;;4956319;28;20197;-62
2023/04/03 07:27:12;;;;;;;4.60;2.23;;;6.10;99.90;;;;;;4956828;28;20531;-61
2023/04/03 07:29:38;;;;;;;1.92;1.83;;;6.10;99.90;;;;;;4956675;28;20188;-64
2023/04/03 07:32:05;;;;;;;2.58;1.60;;;6.20;99.90;;;;;;4956709;28;20184;-62
2023/04/03 07:34:32;;;;;;;2.17;2.00;;;6.30;99.90;;;;;;4954646;29;20241;-62
2023/04/03 07:36:58;;;;;;;2.65;2.45;;;6.30;99.90;;;;;;4956784;28;20210;-63
2023/04/03 07:39:24;;;;;;;3.33;2.15;;;6.30;99.90;;;;;;4956638;28;20228;-64
2023/04/03 07:41:50;;;;;;;1.48;1.38;;;6.20;99.70;;;;;;4956542;28;20183;-63
2023/04/03 07:44:15;;;;;;;1.60;1.50;;;6.30;99.90;;;;;;4956030;28;20202;-65
2023/04/03 07:46:42;;;;;;;4.97;2.00;;;6.40;99.90;;;;;;4956523;28;20178;-64
2023/04/03 07:49:07;;;;;;;2.40;2.20;;;6.60;99.90;;;;;;4956263;28;20651;-63
2023/04/03 07:51:33;;;;;;;2.90;2.23;;;6.70;99.70;;;;;;4956171;28;20196;-63
2023/04/03 07:53:59;;;;;;;1.90;1.43;;;6.70;99.50;;;;;;4955867;28;20331;-64
2023/04/03 07:56:25;;;;;;;2.17;1.83;;;6.80;99.20;;;;;;4956367;28;20211;-63
2023/04/03 07:58:50;;;;;;;2.47;2.30;;;6.90;99.50;;;;;;4956177;28;20186;-62
2023/04/03 08:01:16;;;;;;;2.87;2.63;;;7.00;99.70;;;;;;4956762;28;20208;-61
2023/04/03 08:03:43;;;;;;;1.80;1.70;;;7.10;99.90;;;;;;4960394;28;20579;-60
2023/04/03 08:06:08;;;;;;;1.27;1.27;;;7.20;99.60;;;;;;4964325;28;20425;-62
2023/04/03 08:08:35;;;;;;;1.93;1.83;;;7.10;99.70;;;;;;4963881;28;20543;-62
2023/04/03 08:11:02;;;;;;;1.40;1.30;;;7.20;99.90;;;;;;4964771;28;20489;-63
2023/04/03 08:13:29;;;;;;;2.42;2.30;;;7.30;99.50;;;;;;4965191;28;20308;-63
2023/04/03 08:15:57;;;;;;;2.92;2.00;;;7.30;99.80;;;;;;4965519;28;20213;-62
2023/04/03 08:18:24;;;;;;;1.48;1.38;;;7.50;99.40;;;;;;4956529;28;20611;-62
2023/04/03 08:20:51;;;;;;;4.72;2.20;;;7.70;99.10;;;;;;4956162;28;20227;-63
2023/04/03 08:23:17;;;;;;;1.92;1.83;;;7.80;98.60;;;;;;4955270;28;20231;-61
2023/04/03 08:25:43;;;;;;;2.05;1.92;;;7.90;98.40;;;;;;4956845;28;20520;-64
2023/04/03 08:28:11;;;;;;;1.88;1.77;;;8.00;98.50;;;;;;4957905;28;20204;-61
2023/04/03 08:30:39;;;;;;;2.08;1.98;;;8.30;97.90;;;;;;4957349;28;20184;-63
2023/04/03 08:33:05;;;;;;;2.42;2.33;;;8.30;97.50;;;;;;4957977;28;20188;-63
2023/04/03 08:35:31;;;;;;;2.28;2.08;;;8.30;97.60;;;;;;4961302;28;20631;-64
2023/04/03 08:37:57;;;;;;;3.92;2.38;;;8.30;97.30;;;;;;4954843;28;20177;-63
2023/04/03 08:40:24;;;;;;;1.53;1.43;;;8.20;97.10;;;;;;4956610;28;20183;-64
2023/04/03 08:43:12;;;;;;;1.63;1.63;;;8.00;97.50;;;;;;4957132;28;20577;-62
2023/04/03 08:45:52;;;;;;;2.13;2.03;;;7.70;97.50;;;;;;4956050;28;20200;-63
2023/04/03 08:48:27;;;;;;;2.10;1.90;;;7.50;98.00;;;;;;4955570;28;20173;-62
2023/04/03 08:50:57;;;;;;;2.53;1.90;;;7.70;98.10;;;;;;4955472;28;20172;-64
2023/04/03 08:53:28;;;;;;;2.08;1.85;;;7.80;97.90;;;;;;4954608;28;20177;-63
2023/04/03 08:55:55;;;;;;;2.25;2.00;;;7.90;97.60;;;;;;4955347;28;20212;-62
2023/04/03 08:58:28;;;;;;;2.25;1.55;;;7.90;97.00;;;;;;4955512;28;20555;-64
2023/04/03 09:00:59;;;;;;;1.77;1.67;;;8.00;96.50;;;;;;4955788;28;20650;-64
2023/04/03 09:03:25;;;;;;;1.33;1.33;;;8.30;96.40;;;;;;4955198;28;20200;-65
2023/04/03 09:05:50;;;;;;;1.43;1.33;;;8.50;95.30;;;;;;4955069;28;20248;-64
2023/04/03 09:08:42;;;;;;;1.70;1.60;;;8.40;95.30;;;;;;4954802;28;20185;-62
2023/04/03 09:11:27;;;;;;;1.88;1.77;;;8.30;95.40;;;;;;4954996;28;20216;-63
2023/04/03 09:14:13;;;;;;;2.45;2.28;;;8.00;96.40;;;;;;4954849;28;20184;-64
2023/04/03 09:16:44;;;;;;;1.77;1.67;;;8.00;96.30;;;;;;4958664;28;20176;-61
2023/04/03 09:19:20;;;;;;;2.55;2.33;;;8.00;96.00;;;;;;4958941;28;20177;-63
2023/04/03 09:21:45;;;;;;;1.40;1.40;;;7.90;96.20;;;;;;4958875;28;20174;-63
2023/04/03 09:24:15;;;;;;;2.20;2.00;;;7.90;96.10;;;;;;4958350;28;20554;-62
2023/04/03 09:26:47;;;;;;;1.85;1.73;;;7.80;96.00;;;;;;4958788;28;20180;-64
2023/04/03 09:29:24;;;;;;;1.65;1.55;;;7.70;96.00;;;;;;4959295;28;20575;-65
2023/04/03 09:31:55;;;;;;;2.38;1.90;;;7.60;96.30;;;;;;4958972;28;20259;-62
2023/04/03 09:34:26;;;;;;;1.80;1.70;;;7.50;96.30;;;;;;4958477;28;20255;-64
2023/04/03 09:36:56;;;;;;;2.75;2.53;;;7.50;96.40;;;;;;4958541;28;20436;-61
2023/04/03 09:39:28;;;;;;;3.10;1.85;;;7.50;96.70;;;;;;4958674;28;20176;-63
2023/04/03 09:42:02;;;;;;;1.75;1.65;;;7.50;97.00;;;;;;4958770;28;20180;-61
2023/04/03 09:44:37;;;;;;;2.17;1.63;;;7.50;96.40;;;;;;4958169;28;20211;-63
2023/04/03 09:47:29;;;;;;;3.85;2.70;;;7.50;96.50;;;;;;4958573;28;20227;-63
2023/04/03 09:50:12;;;;;;;1.95;1.85;;;7.50;97.00;;;;;;4958544;28;20200;-63
2023/04/03 09:52:40;;;;;;;1.45;1.45;;;7.40;96.30;;;;;;4958356;28;20211;-62
2023/04/03 09:55:15;;;;;;;5.53;2.95;;;7.40;96.10;;;;;;4958192;28;20220;-62
2023/04/03 09:57:41;;;;;;;2.40;2.28;;;7.50;96.20;;;;;;4958465;28;20164;-62
2023/04/03 10:00:21;;;;;;;1.70;1.70;;;7.60;96.20;;;;;;4958494;28;20198;-65
2023/04/03 10:02:51;;;;;;;3.10;1.90;;;7.70;96.70;;;;;;4958127;28;20416;-62
2023/04/03 10:05:28;;;;;;;3.45;1.75;;;7.80;96.60;;;;;;4957550;28;20717;-62
2023/04/03 10:08:15;;;;;;;1.55;1.45;;;7.80;96.40;;;;;;4958016;28;20281;-63
2023/04/03 10:11:04;;;;;;;1.73;1.63;;;7.70;96.50;;;;;;4958082;28;20176;-63
2023/04/03 10:13:30;;;;;;;1.77;1.63;;;7.70;96.50;;;;;;4956373;28;20567;-61
2023/04/03 10:16:11;;;;;;;1.40;1.40;;;7.60;96.50;;;;;;4957990;28;20209;-65
2023/04/03 10:18:38;;;;;;;2.08;1.63;;;7.50;96.20;;;;;;4958104;28;20275;-63
2023/04/03 10:21:28;;;;;;;2.63;1.85;;;7.40;96.50;;;;;;4957423;28;20258;-64
2023/04/03 10:24:28;;;;;;;2.13;1.95;;;7.40;96.20;;;;;;4957721;28;20531;-64
2023/04/03 10:27:10;;;;;;;2.45;2.25;;;7.30;96.40;;;;;;4957629;28;20208;-62
2023/04/03 10:29:54;;;;;;;1.67;1.60;;;7.30;96.40;;;;;;4957975;28;20179;-63
2023/04/03 10:33:08;;;;;;;3.15;2.28;;;7.30;96.70;;;;;;4958004;28;20193;-63
2023/04/03 10:35:53;;;;;;;1.25;1.25;;;7.30;97.00;;;;;;4942475;29;20211;-63
2023/04/03 10:38:48;;;;;;;1.30;1.30;;;7.40;95.90;;;;;;4936298;29;20204;-63
2023/04/03 10:41:23;;;;;;;3.13;1.70;;;7.30;95.90;;;;;;4938166;29;20189;-64
2023/04/03 10:44:26;;;;;;;1.88;1.77;;;7.30;95.80;;;;;;4946316;29;20238;-64
2023/04/03 10:47:10;;;;;;;1.45;1.45;;;7.30;95.90;;;;;;4957580;28;20180;-62
2023/04/03 10:49:55;;;;;;;2.20;2.10;;;7.40;95.10;;;;;;4957305;28;20260;-63
2023/04/03 10:52:46;;;;;;;5.38;1.70;;;7.40;94.70;;;;;;4957391;28;20179;-63
2023/04/03 10:55:35;;;;;;;1.92;1.83;;;7.40;94.70;;;;;;4954573;29;20643;-62
2023/04/03 10:58:03;;;;;;;2.15;1.60;;;7.50;94.60;;;;;;4956663;28;20173;-64
2023/04/03 11:00:38;;;;;;;2.05;1.95;;;7.60;93.80;;;;;;4956917;28;20270;-62
2023/04/03 11:03:10;;;;;;;1.20;1.00;;;7.60;92.80;;;;;;4956737;28;20541;-60
2023/04/03 11:05:47;;;;;;;2.58;1.17;;;7.50;92.30;;;;;;4956513;28;20220;-60
2023/04/03 11:08:22;;;;;;;1.42;1.20;;;7.50;91.40;;;;;;4956636;28;20180;-60
2023/04/03 11:10:51;;;;;;;1.73;1.50;;;7.50;90.30;;;;;;4956646;28;20180;-60
2023/04/03 11:13:35;;;;;;;0.95;0.95;;;7.50;89.40;;;;;;4953833;28;20184;-59
2023/04/03 11:16:03;;;;;;;1.63;1.50;;;7.60;90.00;;;;;;4936875;29;20307;-61
2023/04/03 11:18:39;;;;;;;2.28;1.55;;;7.60;92.70;;;;;;4936299;29;20240;-60
2023/04/03 11:21:21;;;;;;;1.60;1.50;;;7.70;93.60;;;;;;4953611;29;20181;-62
2023/04/03 11:23:47;;;;;;;2.10;1.60;;;7.80;93.80;;;;;;4954950;28;20525;-62
2023/04/03 11:26:22;;;;;;;1.50;1.40;;;7.80;93.50;;;;;;4955127;28;20180;-62
2023/04/03 11:29:01;;;;;;;1.80;1.70;;;7.80;93.20;;;;;;4956721;28;20538;-61
2023/04/03 11:31:51;;;;;;;1.83;1.73;;;7.80;93.50;;;;;;4956682;28;20267;-61
2023/04/03 11:34:42;;;;;;;2.45;2.08;;;7.80;93.80;;;;;;4955898;28;20234;-59
2023/04/03 11:37:37;;;;;;;2.90;1.80;;;7.90;94.30;;;;;;4956460;28;20184;-61
2023/04/03 11:40:32;;;;;;;1.45;1.40;;;8.00;93.80;;;;;;4956520;28;20231;-61
2023/04/03 11:43:25;;;;;;;1.75;1.65;;;8.00;93.20;;;;;;4955836;29;20185;-61
2023/04/03 11:45:59;;;;;;;1.08;1.00;;;8.10;93.20;;;;;;4956313;28;20201;-61
2023/04/03 11:48:28;;;;;;;2.10;1.88;;;8.30;93.30;;;;;;4955820;28;20281;-60
2023/04/03 11:50:55;;;;;;;2.95;1.60;;;8.30;92.90;;;;;;4956071;28;20674;-60
2023/04/03 11:53:32;;;;;;;2.05;1.80;;;8.20;93.10;;;;;;4955680;28;20211;-59
2023/04/03 11:56:01;;;;;;;1.23;1.20;;;8.10;93.30;;;;;;4955997;28;20686;-61
2023/04/03 11:58:33;;;;;;;2.25;2.05;;;7.90;93.20;;;;;;4956041;28;20259;-62
2023/04/03 12:01:08;;;;;;;1.20;1.20;;;7.90;93.20;;;;;;4955957;28;20535;-61
2023/04/03 12:03:58;;;;;;;2.65;1.50;;;7.90;93.40;;;;;;4955571;28;20567;-61
2023/04/03 12:06:32;;;;;;;1.63;1.33;;;8.10;93.50;;;;;;4955673;28;20185;-61
2023/04/03 12:08:58;;;;;;;1.65;1.10;;;8.20;92.10;;;;;;4955964;28;20186;-61
2023/04/03 12:11:32;;;;;;;1.67;1.50;;;8.30;91.50;;;;;;4955924;28;20173;-61
2023/04/03 12:13:57;;;;;;;1.25;1.20;;;8.30;91.20;;;;;;4955509;28;20240;-61
2023/04/03 12:16:32;;;;;;;1.43;1.33;;;8.30;91.10;;;;;;4955490;28;20500;-61
2023/04/03 12:19:03;;;;;;;2.58;1.60;;;8.30;91.30;;;;;;4955844;28;20177;-61
2023/04/03 12:21:47;;;;;;;1.30;1.30;;;8.30;91.10;;;;;;4955912;28;20185;-62
2023/04/03 12:24:16;;;;;;;1.42;1.33;;;8.40;90.40;;;;;;4955523;28;20201;-61
2023/04/03 12:27:05;;;;;;;1.40;1.30;;;8.30;89.60;;;;;;4955616;28;20216;-61
2023/04/03 12:29:33;;;;;;;1.30;1.30;;;8.30;89.70;;;;;;4955331;28;20277;-60
2023/04/03 12:32:20;;;;;;;1.60;1.50;;;8.20;90.40;;;;;;4937676;28;20252;-61
2023/04/03 12:35:11;;;;;;;1.35;1.25;;;8.10;91.20;;;;;;4943597;29;20234;-60
2023/04/03 12:38:04;;;;;;;1.08;1.08;;;8.10;91.20;;;;;;4955614;28;20169;-61
2023/04/03 12:40:48;;;;;;;2.00;1.38;;;8.10;91.20;;;;;;4955143;28;20179;-61
2023/04/03 12:43:14;;;;;;;1.45;1.33;;;8.10;91.40;;;;;;4955374;28;20189;-61
2023/04/03 12:46:00;;;;;;;2.00;1.40;;;8.10;91.10;;;;;;4955503;28;20208;-61
2023/04/03 12:48:29;;;;;;;2.47;1.85;;;8.10;91.20;;;;;;4955051;28;20212;-62
2023/04/03 12:50:57;;;;;;;1.55;1.25;;;8.10;91.00;;;;;;4955169;28;20181;-62
2023/04/03 12:53:26;;;;;;;1.48;1.30;;;8.20;90.90;;;;;;4955056;28;20208;-62
2023/04/03 12:56:18;;;;;;;1.55;0.98;;;8.20;90.40;;;;;;4955351;28;20259;-60
2023/04/03 12:58:44;;;;;;;1.95;1.00;;;8.20;90.20;;;;;;4954928;28;20292;-62
2023/04/03 13:01:13;;;;;;;1.30;1.27;;;8.30;89.60;;;;;;4955189;28;20638;-61
2023/04/03 13:03:42;;;;;;;1.02;1.00;;;8.30;88.90;;;;;;4954760;28;20404;-62
2023/04/03 13:06:18;;;;;;;1.42;1.10;;;8.30;88.10;;;;;;4954982;28;20184;-61
2023/04/03 13:09:00;;;;;;;2.10;1.48;;;8.30;88.80;;;;;;4955304;28;20259;-61
2023/04/03 13:11:30;;;;;;;1.50;1.40;;;8.20;90.00;;;;;;4955120;28;20176;-61
2023/04/03 13:14:05;;;;;;;1.58;1.48;;;8.00;90.30;;;;;;4953562;29;20180;-63
2023/04/03 13:16:33;;;;;;;2.10;1.20;;;8.00;89.80;;;;;;4955226;28;20172;-61
2023/04/03 13:18:59;;;;;;;1.80;1.60;;;8.00;89.50;;;;;;4943026;28;20260;-60
2023/04/03 13:21:31;;;;;;;2.15;1.42;;;8.00;90.00;;;;;;4935777;29;20185;-59
2023/04/03 13:23:59;;;;;;;2.13;1.60;;;8.10;89.50;;;;;;4935575;29;20173;-61
2023/04/03 13:26:28;;;;;;;2.05;1.90;;;8.20;89.70;;;;;;4935743;29;20178;-62
2023/04/03 13:28:59;;;;;;;1.10;1.10;;;8.30;87.40;;;;;;4936004;29;20265;-62
2023/04/03 13:31:31;;;;;;;1.40;1.40;;;8.40;88.30;;;;;;4949117;29;20181;-62
2023/04/03 13:34:18;;;;;;;1.70;1.25;;;8.60;88.50;;;;;;4954154;28;20216;-62
2023/04/03 13:36:57;;;;;;;1.25;1.15;;;8.70;87.60;;;;;;4954609;28;20200;-62
2023/04/03 13:39:30;;;;;;;1.38;1.27;;;8.70;87.10;;;;;;4954604;28;20268;-62
2023/04/03 13:42:02;;;;;;;1.80;1.70;;;8.70;86.90;;;;;;4954909;28;20172;-62
2023/04/03 13:44:38;;;;;;;1.45;1.35;;;8.70;87.40;;;;;;4954210;28;20231;-62
2023/04/03 13:47:10;;;;;;;1.90;1.80;;;8.70;86.80;;;;;;4954779;28;20184;-60
2023/04/03 13:49:42;;;;;;;1.60;1.50;;;8.70;86.50;;;;;;4954701;28;20230;-61
2023/04/03 13:52:20;;;;;;;2.13;1.77;;;8.60;87.50;;;;;;4955010;28;20552;-62
2023/04/03 13:54:47;;;;;;;4.93;1.70;;;8.50;87.70;;;;;;4953922;28;20209;-62
2023/04/03 13:57:15;;;;;;;1.77;1.67;;;8.40;86.90;;;;;;4954359;28;20180;-61
2023/04/03 13:59:42;;;;;;;1.52;1.42;;;8.40;87.80;;;;;;4954813;28;20177;-61
2023/04/03 14:02:08;;;;;;;2.60;2.00;;;8.50;88.30;;;;;;4956349;28;20188;-61
2023/04/03 14:04:36;;;;;;;5.40;1.70;;;8.50;87.20;;;;;;4957847;28;20236;-62
2023/04/03 14:07:03;;;;;;;4.30;1.40;;;8.50;86.80;;;;;;4957957;28;20200;-61
2023/04/03 14:09:29;;;;;;;1.23;1.15;;;8.60;85.80;;;;;;4955750;28;20632;-61
2023/04/03 14:12:08;;;;;;;2.25;1.73;;;8.50;85.50;;;;;;4956785;28;20644;-61
2023/04/03 14:14:38;;;;;;;2.15;2.05;;;8.50;85.80;;;;;;4955111;29;20758;-61
2023/04/03 14:17:16;;;;;;;2.10;1.98;;;8.50;86.90;;;;;;4957544;28;20530;-61
2023/04/03 14:19:41;;;;;;;2.55;1.50;;;8.50;85.60;;;;;;4957094;28;20181;-61
2023/04/03 14:22:24;;;;;;;1.17;1.17;;;8.60;85.10;;;;;;4957941;28;20253;-62
2023/04/03 14:24:52;;;;;;;1.80;1.70;;;8.60;82.90;;;;;;4957329;28;20471;-62
2023/04/03 14:27:32;;;;;;;1.67;1.58;;;8.70;83.00;;;;;;4956093;28;20551;-61
2023/04/03 14:29:58;;;;;;;1.15;1.15;;;8.70;84.60;;;;;;4956665;28;20187;-60
2023/04/03 14:32:26;;;;;;;1.55;1.40;;;8.70;84.80;;;;;;4957779;28;20585;-61
2023/04/03 14:34:52;;;;;;;1.30;1.20;;;8.60;84.30;;;;;;4955550;28;20200;-60
2023/04/03 14:37:22;;;;;;;1.40;1.30;;;8.50;85.30;;;;;;4957401;29;20742;-61
2023/04/03 14:39:49;;;;;;;1.65;1.52;;;8.50;85.20;;;;;;4957500;28;20428;-62
2023/04/03 14:42:19;;;;;;;4.15;1.50;;;8.50;85.30;;;;;;4957640;28;20577;-61
2023/04/03 14:44:45;;;;;;;2.10;2.00;;;8.60;84.70;;;;;;4956777;28;20192;-61
2023/04/03 14:47:17;;;;;;;4.17;1.73;;;8.70;84.60;;;;;;4957553;28;20575;-62
2023/04/03 14:49:43;;;;;;;3.20;1.60;;;8.70;84.70;;;;;;4956961;28;20428;-61
2023/04/03 14:52:38;;;;;;;1.60;1.20;;;8.70;83.60;;;;;;4957520;28;20211;-61
2023/04/03 14:55:06;;;;;;;1.23;1.23;;;8.60;82.00;;;;;;4955473;29;20263;-61
2023/04/03 14:57:32;;;;;;;1.10;1.10;;;8.40;83.00;;;;;;4956685;28;20177;-62
2023/04/03 14:59:58;;;;;;;1.25;1.15;;;8.40;83.60;;;;;;4956986;28;20722;-62
2023/04/03 15:02:26;;;;;;;1.38;1.30;;;8.50;83.70;;;;;;4957198;28;20214;-60
2023/04/03 15:04:53;;;;;;;1.10;1.10;;;8.60;82.90;;;;;;4956821;28;20307;-61
2023/04/03 15:07:18;;;;;;;1.05;1.05;;;8.60;81.30;;;;;;4957070;28;20193;-62
2023/04/03 15:09:44;;;;;;;2.00;1.20;;;8.60;80.40;;;;;;4957326;28;20175;-62
2023/04/03 15:12:10;;;;;;;1.40;1.30;;;8.60;79.70;;;;;;4956261;28;20211;-61
2023/04/03 15:14:36;;;;;;;2.03;1.80;;;8.40;80.10;;;;;;4954458;29;20709;-61
2023/04/03 15:17:03;;;;;;;1.37;1.07;;;8.30;79.60;;;;;;4956679;28;20185;-61
2023/04/03 15:19:29;;;;;;;1.38;1.25;;;8.10;80.60;;;;;;4956409;28;20439;-61
2023/04/03 15:21:55;;;;;;;1.42;1.33;;;8.10;80.40;;;;;;4956931;28;20176;-63
2023/04/03 15:24:21;;;;;;;1.63;1.53;;;8.00;81.20;;;;;;4956330;28;20193;-60
2023/04/03 15:26:46;;;;;;;1.30;1.20;;;8.00;82.10;;;;;;4956368;28;20184;-62
2023/04/03 15:29:12;;;;;;;2.53;2.30;;;7.90;81.80;;;;;;4956419;28;20176;-59
2023/04/03 15:31:37;;;;;;;2.20;1.40;;;7.90;82.20;;;;;;4956178;28;20259;-62
2023/04/03 15:34:03;;;;;;;1.50;1.40;;;7.90;82.00;;;;;;4954831;28;20197;-60
2023/04/03 15:36:29;;;;;;;1.57;1.40;;;7.90;82.00;;;;;;4956289;28;20177;-62
2023/04/03 15:38:54;;;;;;;1.47;1.37;;;7.90;82.20;;;;;;4957165;28;20179;-61
2023/04/03 15:41:20;;;;;;;1.83;1.73;;;7.90;82.10;;;;;;4956523;28;20211;-61
2023/04/03 15:43:46;;;;;;;1.35;1.25;;;8.00;81.90;;;;;;4955574;28;20308;-62
2023/04/03 15:46:12;;;;;;;1.10;1.10;;;8.00;81.20;;;;;;4956282;28;20598;-61
2023/04/03 15:48:38;;;;;;;1.30;1.30;;;8.10;80.90;;;;;;4955764;28;20566;-70
2023/04/03 15:51:06;;;;;;;2.27;2.07;;;8.20;80.90;;;;;;4956288;28;20172;-69
2023/04/03 15:53:31;;;;;;;2.05;1.95;;;8.30;81.40;;;;;;4954151;28;20440;-68
2023/04/03 15:55:57;;;;;;;1.30;1.30;;;8.40;79.30;;;;;;4956009;28;20543;-68
2023/04/03 15:58:22;;;;;;;2.07;1.73;;;8.40;78.00;;;;;;4955898;28;20535;-69
2023/04/03 16:00:48;;;;;;;1.20;1.10;;;8.30;77.20;;;;;;4955709;28;20208;-69
2023/04/03 16:03:19;;;;;;;2.63;1.47;;;8.20;77.90;;;;;;4954562;28;20183;-62
2023/04/03 16:05:45;;;;;;;1.52;1.17;;;8.10;77.90;;;;;;4954215;28;20214;-63
2023/04/03 16:08:11;;;;;;;1.70;1.60;;;8.00;78.90;;;;;;4955735;28;20262;-63
2023/04/03 16:10:39;;;;;;;1.65;1.58;;;7.80;79.50;;;;;;4955679;28;21065;-62
2023/04/03 16:13:04;;;;;;;1.67;1.58;;;7.90;80.40;;;;;;4954921;28;20182;-63
2023/04/03 16:15:31;;;;;;;1.63;1.53;;;8.00;79.10;;;;;;4954425;28;20212;-65
2023/04/03 16:17:58;;;;;;;1.98;1.75;;;8.00;79.30;;;;;;4951779;29;20181;-64
2023/04/03 16:20:25;;;;;;;2.30;1.58;;;8.10;79.40;;;;;;4953098;28;20180;-63
2023/04/03 16:22:51;;;;;;;1.73;1.63;;;8.20;79.50;;;;;;4955705;28;20173;-62
2023/04/03 16:25:17;;;;;;;1.77;1.67;;;8.20;80.00;;;;;;4953615;28;20693;-63
2023/04/03 16:27:43;;;;;;;1.92;1.55;;;8.10;79.50;;;;;;4955359;28;20180;-64
2023/04/03 16:30:10;;;;;;;1.00;1.00;;;8.10;79.00;;;;;;4955631;28;20181;-62
2023/04/03 16:32:36;;;;;;;1.80;1.70;;;8.00;78.90;;;;;;4955552;28;20416;-63
2023/04/03 16:35:02;;;;;;;1.80;1.70;;;7.90;79.50;;;;;;4948739;28;20678;-63
2023/04/03 16:37:28;;;;;;;1.20;1.20;;;7.80;79.30;;;;;;4936379;29;20255;-61
2023/04/03 16:39:53;;;;;;;2.60;1.30;;;7.70;79.20;;;;;;4936492;29;20440;-62
2023/04/03 16:42:19;;;;;;;1.53;1.43;;;7.60;79.80;;;;;;4936083;29;20328;-63
2023/04/03 16:44:45;;;;;;;2.73;1.80;;;7.60;80.10;;;;;;4935770;29;20596;-63
2023/04/03 16:47:12;;;;;;;3.03;1.53;;;7.60;80.60;;;;;;4936142;29;20175;-62
2023/04/03 16:49:38;;;;;;;3.63;2.10;;;7.60;81.90;;;;;;4938244;29;20189;-63
2023/04/03 16:52:04;;;;;;;3.70;1.33;;;7.60;82.00;;;;;;4934805;29;20188;-63
2023/04/03 16:54:31;;;;;;;3.40;1.70;;;7.70;82.40;;;;;;4935549;29;20201;-63
2023/04/03 16:56:57;;;;;;;2.75;1.88;;;7.70;81.40;;;;;;4934745;29;20181;-64
2023/04/03 16:59:23;;;;;;;3.63;1.58;;;7.70;81.50;;;;;;4935747;29;20169;-62
2023/04/03 17:01:49;;;;;;;2.20;2.03;;;7.70;80.40;;;;;;4935987;29;20631;-63
2023/04/03 17:04:15;;;;;;;1.60;1.50;;;7.60;80.40;;;;;;4939963;29;20448;-62
2023/04/03 17:06:40;;;;;;;1.57;1.47;;;7.50;80.80;;;;;;4945654;29;20511;-62
2023/04/03 17:09:08;;;;;;;2.43;1.60;;;7.40;80.90;;;;;;4943860;28;20180;-62
2023/04/03 17:11:40;;;;;;;1.67;1.52;;;7.30;81.00;;;;;;4942141;29;20262;-61
2023/04/03 17:14:06;;;;;;;1.52;1.42;;;7.30;81.80;;;;;;4954625;28;20282;-63
2023/04/03 17:16:35;;;;;;;1.93;1.83;;;7.20;82.10;;;;;;4955060;28;20255;-62
2023/04/03 17:19:01;;;;;;;2.45;2.22;;;7.10;82.80;;;;;;4942466;28;20793;-62